sensor_id;sensor_type;location;lat;lon;timestamp;P1;durP1;ratioP1;P2;durP2;ratioP2
47796;SDS011;33558;50.922;14.068;2022-09-29T00:00:32;5.80;;;4.23;;
47796;SDS011;33558;50.922;14.068;2022-09-29T00:03:01;4.77;;;3.83;;
47796;SDS011;33558;50.922;14.068;2022-09-29T00:05:27;8.80;;;4.30;;
47796;SDS011;33558;50.922;14.068;2022-09-29T00:07:54;8.53;;;3.97;;
47796;SDS011;33558;50.922;14.068;2022-09-29T00:10:21;6.53;;;4.30;;
47796;SDS011;33558;50.922;14.068;2022-09-29T00:12:48;7.20;;;4.40;;
47796;SDS011;33558;50.922;14.068;2022-09-29T00:15:15;7.77;;;4.33;;
47796;SDS011;33558;50.922;14.068;2022-09-29T00:17:42;7.03;;;3.90;;
47796;SDS011;33558;50.922;14.068;2022-09-29T00:20:10;7.83;;;5.00;;
47796;SDS011;33558;50.922;14.068;2022-09-29T00:22:37;7.60;;;4.00;;
47796;SDS011;33558;50.922;14.068;2022-09-29T00:25:04;8.47;;;4.40;;
47796;SDS011;33558;50.922;14.068;2022-09-29T00:27:31;7.43;;;4.47;;
47796;SDS011;33558;50.922;14.068;2022-09-29T00:29:58;8.03;;;4.67;;
47796;SDS011;33558;50.922;14.068;2022-09-29T00:32:24;9.80;;;4.30;;
47796;SDS011;33558;50.922;14.068;2022-09-29T00:34:51;7.43;;;4.43;;
47796;SDS011;33558;50.922;14.068;2022-09-29T00:37:19;7.67;;;4.37;;
47796;SDS011;33558;50.922;14.068;2022-09-29T00:39:46;6.97;;;4.27;;
47796;SDS011;33558;50.922;14.068;2022-09-29T00:42:15;10.73;;;5.10;;
47796;SDS011;33558;50.922;14.068;2022-09-29T00:45:00;7.00;;;4.00;;
47796;SDS011;33558;50.922;14.068;2022-09-29T00:47:31;7.90;;;4.60;;
47796;SDS011;33558;50.922;14.068;2022-09-29T00:49:58;6.67;;;4.60;;
47796;SDS011;33558;50.922;14.068;2022-09-29T00:52:29;7.63;;;4.90;;
47796;SDS011;33558;50.922;14.068;2022-09-29T00:54:59;6.67;;;3.87;;
47796;SDS011;33558;50.922;14.068;2022-09-29T00:57:29;7.43;;;4.00;;
47796;SDS011;33558;50.922;14.068;2022-09-29T01:00:00;8.87;;;4.30;;
47796;SDS011;33558;50.922;14.068;2022-09-29T01:02:30;5.63;;;3.50;;
47796;SDS011;33558;50.922;14.068;2022-09-29T01:04:59;7.97;;;3.80;;
47796;SDS011;33558;50.922;14.068;2022-09-29T01:07:26;7.50;;;4.17;;
47796;SDS011;33558;50.922;14.068;2022-09-29T01:09:55;7.03;;;4.30;;
47796;SDS011;33558;50.922;14.068;2022-09-29T01:12:22;6.27;;;4.20;;
47796;SDS011;33558;50.922;14.068;2022-09-29T01:14:49;7.47;;;4.53;;
47796;SDS011;33558;50.922;14.068;2022-09-29T01:17:16;6.93;;;4.20;;
47796;SDS011;33558;50.922;14.068;2022-09-29T01:19:45;7.90;;;4.67;;
47796;SDS011;33558;50.922;14.068;2022-09-29T01:22:20;8.10;;;5.00;;
47796;SDS011;33558;50.922;14.068;2022-09-29T01:25:06;9.70;;;4.65;;
47796;SDS011;33558;50.922;14.068;2022-09-29T01:27:51;7.40;;;4.40;;
47796;SDS011;33558;50.922;14.068;2022-09-29T01:30:53;10.57;;;4.80;;
47796;SDS011;33558;50.922;14.068;2022-09-29T01:33:29;7.40;;;4.00;;
47796;SDS011;33558;50.922;14.068;2022-09-29T01:36:01;7.07;;;4.60;;
47796;SDS011;33558;50.922;14.068;2022-09-29T01:38:34;7.13;;;4.30;;
47796;SDS011;33558;50.922;14.068;2022-09-29T01:41:09;8.43;;;3.80;;
47796;SDS011;33558;50.922;14.068;2022-09-29T01:43:41;8.17;;;4.37;;
47796;SDS011;33558;50.922;14.068;2022-09-29T01:46:14;7.93;;;3.87;;
47796;SDS011;33558;50.922;14.068;2022-09-29T01:48:46;8.77;;;3.90;;
47796;SDS011;33558;50.922;14.068;2022-09-29T01:51:16;7.07;;;4.63;;
47796;SDS011;33558;50.922;14.068;2022-09-29T01:53:46;9.23;;;4.30;;
47796;SDS011;33558;50.922;14.068;2022-09-29T01:56:15;7.70;;;4.13;;
47796;SDS011;33558;50.922;14.068;2022-09-29T01:58:46;8.80;;;4.70;;
47796;SDS011;33558;50.922;14.068;2022-09-29T02:01:18;8.67;;;4.80;;
47796;SDS011;33558;50.922;14.068;2022-09-29T02:03:47;8.63;;;4.13;;
47796;SDS011;33558;50.922;14.068;2022-09-29T02:06:17;7.60;;;4.50;;
47796;SDS011;33558;50.922;14.068;2022-09-29T02:08:47;7.53;;;3.87;;
47796;SDS011;33558;50.922;14.068;2022-09-29T02:11:15;10.30;;;4.63;;
47796;SDS011;33558;50.922;14.068;2022-09-29T02:13:43;8.87;;;4.83;;
47796;SDS011;33558;50.922;14.068;2022-09-29T02:16:14;10.17;;;4.90;;
47796;SDS011;33558;50.922;14.068;2022-09-29T02:18:46;7.73;;;4.20;;
47796;SDS011;33558;50.922;14.068;2022-09-29T02:21:14;13.23;;;5.03;;
47796;SDS011;33558;50.922;14.068;2022-09-29T02:23:41;10.87;;;5.20;;
47796;SDS011;33558;50.922;14.068;2022-09-29T02:26:07;8.17;;;4.77;;
47796;SDS011;33558;50.922;14.068;2022-09-29T02:28:35;6.60;;;4.50;;
47796;SDS011;33558;50.922;14.068;2022-09-29T02:31:02;7.50;;;4.23;;
47796;SDS011;33558;50.922;14.068;2022-09-29T02:33:29;7.30;;;5.07;;
47796;SDS011;33558;50.922;14.068;2022-09-29T02:35:59;8.27;;;4.37;;
47796;SDS011;33558;50.922;14.068;2022-09-29T02:38:41;7.73;;;4.60;;
47796;SDS011;33558;50.922;14.068;2022-09-29T02:43:48;7.30;;;4.07;;
47796;SDS011;33558;50.922;14.068;2022-09-29T02:46:30;7.40;;;3.60;;
47796;SDS011;33558;50.922;14.068;2022-09-29T02:49:11;7.03;;;4.60;;
47796;SDS011;33558;50.922;14.068;2022-09-29T02:51:49;7.23;;;4.20;;
47796;SDS011;33558;50.922;14.068;2022-09-29T02:54:19;7.07;;;4.30;;
47796;SDS011;33558;50.922;14.068;2022-09-29T02:56:58;10.00;;;4.80;;
47796;SDS011;33558;50.922;14.068;2022-09-29T02:59:30;8.80;;;4.37;;
47796;SDS011;33558;50.922;14.068;2022-09-29T03:02:00;6.47;;;3.50;;
47796;SDS011;33558;50.922;14.068;2022-09-29T03:04:27;7.30;;;4.00;;
47796;SDS011;33558;50.922;14.068;2022-09-29T03:06:55;7.97;;;3.97;;
47796;SDS011;33558;50.922;14.068;2022-09-29T03:09:23;7.43;;;4.20;;
47796;SDS011;33558;50.922;14.068;2022-09-29T03:11:49;7.27;;;4.07;;
47796;SDS011;33558;50.922;14.068;2022-09-29T03:14:16;8.53;;;3.87;;
47796;SDS011;33558;50.922;14.068;2022-09-29T03:16:43;7.47;;;3.90;;
47796;SDS011;33558;50.922;14.068;2022-09-29T03:19:10;6.43;;;4.20;;
47796;SDS011;33558;50.922;14.068;2022-09-29T03:21:36;6.07;;;3.73;;
47796;SDS011;33558;50.922;14.068;2022-09-29T03:24:05;5.83;;;3.50;;
47796;SDS011;33558;50.922;14.068;2022-09-29T03:26:32;6.40;;;3.70;;
47796;SDS011;33558;50.922;14.068;2022-09-29T03:28:58;8.03;;;3.73;;
47796;SDS011;33558;50.922;14.068;2022-09-29T03:31:25;9.80;;;4.17;;
47796;SDS011;33558;50.922;14.068;2022-09-29T03:33:52;10.17;;;4.17;;
47796;SDS011;33558;50.922;14.068;2022-09-29T03:36:19;10.23;;;5.07;;
47796;SDS011;33558;50.922;14.068;2022-09-29T03:38:46;7.40;;;4.13;;
47796;SDS011;33558;50.922;14.068;2022-09-29T03:41:14;8.20;;;5.07;;
47796;SDS011;33558;50.922;14.068;2022-09-29T03:43:40;10.33;;;5.27;;
47796;SDS011;33558;50.922;14.068;2022-09-29T03:46:07;9.33;;;5.27;;
47796;SDS011;33558;50.922;14.068;2022-09-29T03:48:34;6.50;;;4.17;;
47796;SDS011;33558;50.922;14.068;2022-09-29T03:51:01;9.23;;;4.97;;
47796;SDS011;33558;50.922;14.068;2022-09-29T03:53:28;8.90;;;4.50;;
47796;SDS011;33558;50.922;14.068;2022-09-29T03:55:55;9.40;;;5.70;;
47796;SDS011;33558;50.922;14.068;2022-09-29T03:58:23;10.40;;;5.23;;
47796;SDS011;33558;50.922;14.068;2022-09-29T04:00:50;8.97;;;4.63;;
47796;SDS011;33558;50.922;14.068;2022-09-29T04:03:17;7.83;;;5.10;;
47796;SDS011;33558;50.922;14.068;2022-09-29T04:05:44;9.10;;;5.27;;
47796;SDS011;33558;50.922;14.068;2022-09-29T04:08:11;9.67;;;5.93;;
47796;SDS011;33558;50.922;14.068;2022-09-29T04:10:38;8.73;;;4.27;;
47796;SDS011;33558;50.922;14.068;2022-09-29T04:13:05;9.03;;;4.93;;
47796;SDS011;33558;50.922;14.068;2022-09-29T04:15:33;8.23;;;4.70;;
47796;SDS011;33558;50.922;14.068;2022-09-29T04:18:00;9.77;;;5.43;;
47796;SDS011;33558;50.922;14.068;2022-09-29T04:20:27;12.17;;;5.53;;
47796;SDS011;33558;50.922;14.068;2022-09-29T04:22:54;10.27;;;5.10;;
47796;SDS011;33558;50.922;14.068;2022-09-29T04:25:21;9.77;;;6.73;;
47796;SDS011;33558;50.922;14.068;2022-09-29T04:27:47;8.97;;;4.63;;
47796;SDS011;33558;50.922;14.068;2022-09-29T04:30:14;8.40;;;4.60;;
47796;SDS011;33558;50.922;14.068;2022-09-29T04:32:42;8.80;;;5.07;;
47796;SDS011;33558;50.922;14.068;2022-09-29T04:35:09;10.67;;;4.77;;
47796;SDS011;33558;50.922;14.068;2022-09-29T04:37:36;8.00;;;5.13;;
47796;SDS011;33558;50.922;14.068;2022-09-29T04:40:03;11.40;;;5.93;;
47796;SDS011;33558;50.922;14.068;2022-09-29T04:42:30;11.47;;;5.63;;
47796;SDS011;33558;50.922;14.068;2022-09-29T04:44:57;10.13;;;6.13;;
47796;SDS011;33558;50.922;14.068;2022-09-29T04:47:24;13.73;;;6.37;;
47796;SDS011;33558;50.922;14.068;2022-09-29T04:49:52;9.37;;;5.47;;
47796;SDS011;33558;50.922;14.068;2022-09-29T04:52:18;12.17;;;6.30;;
47796;SDS011;33558;50.922;14.068;2022-09-29T04:54:45;12.53;;;5.90;;
47796;SDS011;33558;50.922;14.068;2022-09-29T04:57:12;10.07;;;5.77;;
47796;SDS011;33558;50.922;14.068;2022-09-29T04:59:39;11.17;;;6.03;;
47796;SDS011;33558;50.922;14.068;2022-09-29T05:02:05;21.30;;;6.23;;
47796;SDS011;33558;50.922;14.068;2022-09-29T05:04:32;11.33;;;5.80;;
47796;SDS011;33558;50.922;14.068;2022-09-29T05:07:01;8.77;;;5.00;;
47796;SDS011;33558;50.922;14.068;2022-09-29T05:09:28;11.50;;;5.67;;
47796;SDS011;33558;50.922;14.068;2022-09-29T05:11:54;9.80;;;5.50;;
47796;SDS011;33558;50.922;14.068;2022-09-29T05:14:21;11.47;;;5.33;;
47796;SDS011;33558;50.922;14.068;2022-09-29T05:16:48;10.03;;;5.43;;
47796;SDS011;33558;50.922;14.068;2022-09-29T05:19:15;12.87;;;5.53;;
47796;SDS011;33558;50.922;14.068;2022-09-29T05:21:41;9.63;;;5.37;;
47796;SDS011;33558;50.922;14.068;2022-09-29T05:24:10;11.83;;;5.87;;
47796;SDS011;33558;50.922;14.068;2022-09-29T05:26:36;13.80;;;5.80;;
47796;SDS011;33558;50.922;14.068;2022-09-29T05:29:03;13.10;;;5.90;;
47796;SDS011;33558;50.922;14.068;2022-09-29T05:31:30;13.43;;;6.83;;
47796;SDS011;33558;50.922;14.068;2022-09-29T05:33:57;13.10;;;5.83;;
47796;SDS011;33558;50.922;14.068;2022-09-29T05:36:24;11.20;;;5.70;;
47796;SDS011;33558;50.922;14.068;2022-09-29T05:38:51;10.90;;;5.70;;
47796;SDS011;33558;50.922;14.068;2022-09-29T05:41:19;9.07;;;4.83;;
47796;SDS011;33558;50.922;14.068;2022-09-29T05:43:48;9.30;;;5.43;;
47796;SDS011;33558;50.922;14.068;2022-09-29T05:46:15;11.90;;;6.27;;
47796;SDS011;33558;50.922;14.068;2022-09-29T05:48:44;10.13;;;5.40;;
47796;SDS011;33558;50.922;14.068;2022-09-29T05:51:11;10.33;;;5.60;;
47796;SDS011;33558;50.922;14.068;2022-09-29T05:53:39;9.63;;;5.27;;
47796;SDS011;33558;50.922;14.068;2022-09-29T05:56:07;10.60;;;5.83;;
47796;SDS011;33558;50.922;14.068;2022-09-29T05:58:37;11.73;;;5.70;;
47796;SDS011;33558;50.922;14.068;2022-09-29T06:01:05;8.67;;;5.33;;
47796;SDS011;33558;50.922;14.068;2022-09-29T06:03:32;10.80;;;5.80;;
47796;SDS011;33558;50.922;14.068;2022-09-29T06:06:03;8.93;;;5.50;;
47796;SDS011;33558;50.922;14.068;2022-09-29T06:08:31;11.63;;;6.23;;
47796;SDS011;33558;50.922;14.068;2022-09-29T06:11:01;10.10;;;6.30;;
47796;SDS011;33558;50.922;14.068;2022-09-29T06:13:29;11.00;;;6.87;;
47796;SDS011;33558;50.922;14.068;2022-09-29T06:15:58;10.20;;;6.33;;
47796;SDS011;33558;50.922;14.068;2022-09-29T06:18:25;11.17;;;6.30;;
47796;SDS011;33558;50.922;14.068;2022-09-29T06:20:52;10.23;;;6.43;;
47796;SDS011;33558;50.922;14.068;2022-09-29T06:23:18;10.17;;;6.93;;
47796;SDS011;33558;50.922;14.068;2022-09-29T06:25:45;11.23;;;6.73;;
47796;SDS011;33558;50.922;14.068;2022-09-29T06:28:12;11.77;;;7.33;;
47796;SDS011;33558;50.922;14.068;2022-09-29T06:30:38;13.60;;;7.23;;
47796;SDS011;33558;50.922;14.068;2022-09-29T06:33:07;10.37;;;6.93;;
47796;SDS011;33558;50.922;14.068;2022-09-29T06:35:33;13.50;;;6.77;;
47796;SDS011;33558;50.922;14.068;2022-09-29T06:38:17;10.67;;;6.33;;
47796;SDS011;33558;50.922;14.068;2022-09-29T06:40:44;9.67;;;6.07;;
47796;SDS011;33558;50.922;14.068;2022-09-29T06:43:11;10.47;;;6.77;;
47796;SDS011;33558;50.922;14.068;2022-09-29T06:45:38;10.67;;;6.53;;
47796;SDS011;33558;50.922;14.068;2022-09-29T06:48:04;9.00;;;5.93;;
47796;SDS011;33558;50.922;14.068;2022-09-29T06:50:34;8.43;;;6.20;;
47796;SDS011;33558;50.922;14.068;2022-09-29T06:53:00;8.23;;;5.90;;
47796;SDS011;33558;50.922;14.068;2022-09-29T06:55:27;10.07;;;5.90;;
47796;SDS011;33558;50.922;14.068;2022-09-29T06:57:54;8.33;;;5.30;;
47796;SDS011;33558;50.922;14.068;2022-09-29T07:00:20;10.00;;;5.73;;
47796;SDS011;33558;50.922;14.068;2022-09-29T07:02:47;8.03;;;6.03;;
47796;SDS011;33558;50.922;14.068;2022-09-29T07:05:15;8.00;;;5.97;;
47796;SDS011;33558;50.922;14.068;2022-09-29T07:07:42;7.90;;;5.23;;
47796;SDS011;33558;50.922;14.068;2022-09-29T07:10:09;8.20;;;5.60;;
47796;SDS011;33558;50.922;14.068;2022-09-29T07:12:35;9.50;;;6.17;;
47796;SDS011;33558;50.922;14.068;2022-09-29T07:15:02;9.23;;;5.87;;
47796;SDS011;33558;50.922;14.068;2022-09-29T07:17:29;8.20;;;5.47;;
47796;SDS011;33558;50.922;14.068;2022-09-29T07:19:56;8.77;;;5.63;;
47796;SDS011;33558;50.922;14.068;2022-09-29T07:22:24;10.30;;;5.90;;
47796;SDS011;33558;50.922;14.068;2022-09-29T07:24:51;6.97;;;5.27;;
47796;SDS011;33558;50.922;14.068;2022-09-29T07:27:19;7.70;;;5.50;;
47796;SDS011;33558;50.922;14.068;2022-09-29T07:29:48;7.33;;;5.80;;
47796;SDS011;33558;50.922;14.068;2022-09-29T07:32:15;7.80;;;5.73;;
47796;SDS011;33558;50.922;14.068;2022-09-29T07:34:42;9.10;;;6.37;;
47796;SDS011;33558;50.922;14.068;2022-09-29T07:37:08;11.50;;;6.20;;
47796;SDS011;33558;50.922;14.068;2022-09-29T07:39:37;11.20;;;6.97;;
47796;SDS011;33558;50.922;14.068;2022-09-29T07:42:04;9.37;;;6.33;;
47796;SDS011;33558;50.922;14.068;2022-09-29T07:44:31;9.37;;;7.03;;
47796;SDS011;33558;50.922;14.068;2022-09-29T07:46:57;10.30;;;6.57;;
47796;SDS011;33558;50.922;14.068;2022-09-29T07:49:24;9.93;;;6.80;;
47796;SDS011;33558;50.922;14.068;2022-09-29T07:51:51;8.93;;;6.87;;
47796;SDS011;33558;50.922;14.068;2022-09-29T07:54:17;8.73;;;6.93;;
47796;SDS011;33558;50.922;14.068;2022-09-29T07:56:45;9.23;;;7.00;;
47796;SDS011;33558;50.922;14.068;2022-09-29T07:59:12;10.93;;;7.30;;
47796;SDS011;33558;50.922;14.068;2022-09-29T08:01:39;9.93;;;7.07;;
47796;SDS011;33558;50.922;14.068;2022-09-29T08:04:06;9.40;;;6.93;;
47796;SDS011;33558;50.922;14.068;2022-09-29T08:06:33;10.90;;;6.70;;
47796;SDS011;33558;50.922;14.068;2022-09-29T08:08:59;8.27;;;6.33;;
47796;SDS011;33558;50.922;14.068;2022-09-29T08:11:27;9.33;;;6.97;;
47796;SDS011;33558;50.922;14.068;2022-09-29T08:13:55;9.20;;;5.67;;
47796;SDS011;33558;50.922;14.068;2022-09-29T08:16:22;7.20;;;5.20;;
47796;SDS011;33558;50.922;14.068;2022-09-29T08:18:48;7.53;;;5.73;;
47796;SDS011;33558;50.922;14.068;2022-09-29T08:21:15;44.77;;;22.47;;
47796;SDS011;33558;50.922;14.068;2022-09-29T08:23:42;33.30;;;17.40;;
47796;SDS011;33558;50.922;14.068;2022-09-29T08:26:10;9.47;;;7.00;;
47796;SDS011;33558;50.922;14.068;2022-09-29T08:28:38;9.57;;;5.93;;
47796;SDS011;33558;50.922;14.068;2022-09-29T08:31:07;8.20;;;6.30;;
47796;SDS011;33558;50.922;14.068;2022-09-29T08:33:35;10.20;;;7.00;;
47796;SDS011;33558;50.922;14.068;2022-09-29T08:36:03;9.70;;;6.20;;
47796;SDS011;33558;50.922;14.068;2022-09-29T08:38:38;7.10;;;5.13;;
47796;SDS011;33558;50.922;14.068;2022-09-29T08:41:09;7.60;;;4.90;;
47796;SDS011;33558;50.922;14.068;2022-09-29T08:43:45;5.67;;;4.23;;
47796;SDS011;33558;50.922;14.068;2022-09-29T08:46:16;6.60;;;5.00;;
47796;SDS011;33558;50.922;14.068;2022-09-29T12:03:18;7.28;;;4.85;;
47796;SDS011;33558;50.922;14.068;2022-09-29T12:05:51;6.32;;;4.93;;
47796;SDS011;33558;50.922;14.068;2022-09-29T12:08:45;6.05;;;3.90;;
47796;SDS011;33558;50.922;14.068;2022-09-29T12:11:22;5.73;;;5.10;;
47796;SDS011;33558;50.922;14.068;2022-09-29T12:13:52;6.53;;;5.18;;
47796;SDS011;33558;50.922;14.068;2022-09-29T12:16:23;4.88;;;4.22;;
47796;SDS011;33558;50.922;14.068;2022-09-29T12:18:54;5.43;;;4.55;;
47796;SDS011;33558;50.922;14.068;2022-09-29T12:21:26;5.50;;;4.50;;
47796;SDS011;33558;50.922;14.068;2022-09-29T12:23:57;5.70;;;4.30;;
47796;SDS011;33558;50.922;14.068;2022-09-29T12:26:26;5.80;;;3.97;;
47796;SDS011;33558;50.922;14.068;2022-09-29T12:28:54;5.03;;;4.30;;
47796;SDS011;33558;50.922;14.068;2022-09-29T12:31:30;4.50;;;4.00;;
47796;SDS011;33558;50.922;14.068;2022-09-29T12:34:00;6.70;;;4.28;;
47796;SDS011;33558;50.922;14.068;2022-09-29T12:36:41;6.50;;;4.40;;
47796;SDS011;33558;50.922;14.068;2022-09-29T12:39:25;4.70;;;4.00;;
47796;SDS011;33558;50.922;14.068;2022-09-29T13:54:30;3.20;;;2.90;;
47796;SDS011;33558;50.922;14.068;2022-09-29T13:56:59;4.38;;;3.65;;
47796;SDS011;33558;50.922;14.068;2022-09-29T14:06:05;4.50;;;4.10;;
47796;SDS011;33558;50.922;14.068;2022-09-29T14:08:37;4.90;;;3.42;;
47796;SDS011;33558;50.922;14.068;2022-09-29T14:11:13;5.80;;;4.22;;
47796;SDS011;33558;50.922;14.068;2022-09-29T14:13:45;5.22;;;4.13;;
47796;SDS011;33558;50.922;14.068;2022-09-29T14:19:18;3.97;;;3.58;;
47796;SDS011;33558;50.922;14.068;2022-09-29T14:21:52;4.22;;;3.70;;
47796;SDS011;33558;50.922;14.068;2022-09-29T14:30:11;4.40;;;3.88;;
47796;SDS011;33558;50.922;14.068;2022-09-29T14:32:42;4.63;;;3.78;;
47796;SDS011;33558;50.922;14.068;2022-09-29T14:35:24;4.50;;;3.95;;
47796;SDS011;33558;50.922;14.068;2022-09-29T14:41:42;7.50;;;3.75;;
47796;SDS011;33558;50.922;14.068;2022-09-29T14:50:53;4.97;;;3.95;;
47796;SDS011;33558;50.922;14.068;2022-09-29T14:53:45;6.53;;;4.32;;
47796;SDS011;33558;50.922;14.068;2022-09-29T14:56:21;5.82;;;4.60;;
47796;SDS011;33558;50.922;14.068;2022-09-29T14:59:04;5.07;;;4.38;;
47796;SDS011;33558;50.922;14.068;2022-09-29T15:01:35;6.18;;;4.55;;
47796;SDS011;33558;50.922;14.068;2022-09-29T15:04:09;7.72;;;4.07;;
47796;SDS011;33558;50.922;14.068;2022-09-29T15:06:44;5.60;;;4.07;;
47796;SDS011;33558;50.922;14.068;2022-09-29T15:09:14;5.65;;;4.15;;
47796;SDS011;33558;50.922;14.068;2022-09-29T15:11:42;6.05;;;4.50;;
47796;SDS011;33558;50.922;14.068;2022-09-29T15:14:24;6.72;;;4.75;;
47796;SDS011;33558;50.922;14.068;2022-09-29T15:16:55;4.80;;;4.07;;
47796;SDS011;33558;50.922;14.068;2022-09-29T15:22:34;7.13;;;4.00;;
47796;SDS011;33558;50.922;14.068;2022-09-29T15:25:24;5.38;;;4.00;;
47796;SDS011;33558;50.922;14.068;2022-09-29T15:27:54;7.40;;;4.40;;
47796;SDS011;33558;50.922;14.068;2022-09-29T15:30:25;6.20;;;3.97;;
47796;SDS011;33558;50.922;14.068;2022-09-29T15:32:52;5.10;;;3.60;;
47796;SDS011;33558;50.922;14.068;2022-09-29T15:35:20;5.40;;;4.10;;
47796;SDS011;33558;50.922;14.068;2022-09-29T15:37:56;5.15;;;3.75;;
47796;SDS011;33558;50.922;14.068;2022-09-29T15:40:24;6.80;;;4.35;;
47796;SDS011;33558;50.922;14.068;2022-09-29T15:42:52;6.57;;;4.75;;
47796;SDS011;33558;50.922;14.068;2022-09-29T15:45:20;5.97;;;4.50;;
47796;SDS011;33558;50.922;14.068;2022-09-29T15:47:56;4.85;;;4.07;;
47796;SDS011;33558;50.922;14.068;2022-09-29T15:52:51;7.10;;;4.23;;
47796;SDS011;33558;50.922;14.068;2022-09-29T15:55:20;5.95;;;4.25;;
47796;SDS011;33558;50.922;14.068;2022-09-29T15:57:48;4.97;;;4.10;;
47796;SDS011;33558;50.922;14.068;2022-09-29T16:03:11;5.07;;;4.30;;
47796;SDS011;33558;50.922;14.068;2022-09-29T16:05:42;8.70;;;4.30;;
47796;SDS011;33558;50.922;14.068;2022-09-29T16:08:13;8.73;;;4.13;;
47796;SDS011;33558;50.922;14.068;2022-09-29T16:10:47;5.40;;;4.40;;
47796;SDS011;33558;50.922;14.068;2022-09-29T16:13:16;7.07;;;5.07;;
47796;SDS011;33558;50.922;14.068;2022-09-29T16:15:46;8.87;;;4.97;;
47796;SDS011;33558;50.922;14.068;2022-09-29T16:18:17;7.47;;;5.13;;
47796;SDS011;33558;50.922;14.068;2022-09-29T16:20:46;5.03;;;4.17;;
47796;SDS011;33558;50.922;14.068;2022-09-29T16:23:16;7.23;;;5.90;;
47796;SDS011;33558;50.922;14.068;2022-09-29T16:25:45;5.80;;;5.13;;
47796;SDS011;33558;50.922;14.068;2022-09-29T16:28:38;6.77;;;5.60;;
47796;SDS011;33558;50.922;14.068;2022-09-29T16:31:16;7.67;;;5.60;;
47796;SDS011;33558;50.922;14.068;2022-09-29T16:33:46;8.87;;;5.80;;
47796;SDS011;33558;50.922;14.068;2022-09-29T16:36:19;7.33;;;5.07;;
47796;SDS011;33558;50.922;14.068;2022-09-29T16:38:47;7.90;;;5.50;;
47796;SDS011;33558;50.922;14.068;2022-09-29T16:41:18;7.17;;;5.17;;
47796;SDS011;33558;50.922;14.068;2022-09-29T16:43:46;8.73;;;5.43;;
47796;SDS011;33558;50.922;14.068;2022-09-29T16:46:15;6.80;;;4.87;;
47796;SDS011;33558;50.922;14.068;2022-09-29T16:48:43;9.17;;;6.13;;
47796;SDS011;33558;50.922;14.068;2022-09-29T16:51:14;8.43;;;6.90;;
47796;SDS011;33558;50.922;14.068;2022-09-29T16:53:42;7.90;;;5.97;;
47796;SDS011;33558;50.922;14.068;2022-09-29T16:56:14;7.40;;;5.87;;
47796;SDS011;33558;50.922;14.068;2022-09-29T16:58:43;7.57;;;5.50;;
47796;SDS011;33558;50.922;14.068;2022-09-29T17:01:10;10.60;;;6.20;;
47796;SDS011;33558;50.922;14.068;2022-09-29T17:03:37;9.03;;;6.10;;
47796;SDS011;33558;50.922;14.068;2022-09-29T17:06:07;9.77;;;7.20;;
47796;SDS011;33558;50.922;14.068;2022-09-29T17:08:34;11.30;;;9.10;;
47796;SDS011;33558;50.922;14.068;2022-09-29T17:11:00;12.20;;;8.97;;
47796;SDS011;33558;50.922;14.068;2022-09-29T17:13:28;13.67;;;9.03;;
47796;SDS011;33558;50.922;14.068;2022-09-29T17:15:56;10.97;;;8.67;;
47796;SDS011;33558;50.922;14.068;2022-09-29T17:18:25;13.60;;;9.03;;
47796;SDS011;33558;50.922;14.068;2022-09-29T17:20:53;10.10;;;7.23;;
47796;SDS011;33558;50.922;14.068;2022-09-29T17:23:21;9.70;;;6.83;;
47796;SDS011;33558;50.922;14.068;2022-09-29T17:25:49;9.03;;;6.70;;
47796;SDS011;33558;50.922;14.068;2022-09-29T17:28:16;8.30;;;6.87;;
47796;SDS011;33558;50.922;14.068;2022-09-29T17:30:46;10.17;;;7.30;;
47796;SDS011;33558;50.922;14.068;2022-09-29T17:33:14;9.77;;;6.97;;
47796;SDS011;33558;50.922;14.068;2022-09-29T17:35:42;10.77;;;7.90;;
47796;SDS011;33558;50.922;14.068;2022-09-29T17:38:11;13.63;;;7.23;;
47796;SDS011;33558;50.922;14.068;2022-09-29T17:40:44;11.17;;;7.63;;
47796;SDS011;33558;50.922;14.068;2022-09-29T17:43:13;13.82;;;7.78;;
47796;SDS011;33558;50.922;14.068;2022-09-29T17:45:41;12.37;;;8.03;;
47796;SDS011;33558;50.922;14.068;2022-09-29T17:48:08;13.50;;;8.87;;
47796;SDS011;33558;50.922;14.068;2022-09-29T17:50:37;16.33;;;8.83;;
47796;SDS011;33558;50.922;14.068;2022-09-29T17:53:05;12.13;;;8.80;;
47796;SDS011;33558;50.922;14.068;2022-09-29T17:55:32;12.03;;;8.67;;
47796;SDS011;33558;50.922;14.068;2022-09-29T17:58:00;16.30;;;10.00;;
47796;SDS011;33558;50.922;14.068;2022-09-29T18:00:30;14.07;;;9.20;;
47796;SDS011;33558;50.922;14.068;2022-09-29T18:02:57;13.87;;;11.00;;
47796;SDS011;33558;50.922;14.068;2022-09-29T18:05:24;14.70;;;10.30;;
47796;SDS011;33558;50.922;14.068;2022-09-29T18:07:52;14.53;;;10.63;;
47796;SDS011;33558;50.922;14.068;2022-09-29T18:10:21;14.07;;;10.33;;
47796;SDS011;33558;50.922;14.068;2022-09-29T18:12:51;14.97;;;10.87;;
47796;SDS011;33558;50.922;14.068;2022-09-29T18:15:19;13.60;;;10.70;;
47796;SDS011;33558;50.922;14.068;2022-09-29T18:17:46;18.73;;;10.80;;
47796;SDS011;33558;50.922;14.068;2022-09-29T18:20:14;14.13;;;11.43;;
47796;SDS011;33558;50.922;14.068;2022-09-29T18:22:42;15.93;;;10.77;;
47796;SDS011;33558;50.922;14.068;2022-09-29T18:25:10;13.60;;;9.30;;
47796;SDS011;33558;50.922;14.068;2022-09-29T18:27:37;13.37;;;10.10;;
47796;SDS011;33558;50.922;14.068;2022-09-29T18:30:05;13.17;;;9.50;;
47796;SDS011;33558;50.922;14.068;2022-09-29T18:32:34;14.53;;;9.50;;
47796;SDS011;33558;50.922;14.068;2022-09-29T18:35:00;12.53;;;9.27;;
47796;SDS011;33558;50.922;14.068;2022-09-29T18:37:27;12.03;;;9.43;;
47796;SDS011;33558;50.922;14.068;2022-09-29T18:39:54;13.67;;;9.83;;
47796;SDS011;33558;50.922;14.068;2022-09-29T18:42:21;13.53;;;9.67;;
47796;SDS011;33558;50.922;14.068;2022-09-29T18:44:47;14.70;;;9.10;;
47796;SDS011;33558;50.922;14.068;2022-09-29T18:47:15;12.43;;;10.07;;
47796;SDS011;33558;50.922;14.068;2022-09-29T18:49:43;12.97;;;9.67;;
47796;SDS011;33558;50.922;14.068;2022-09-29T18:52:10;13.47;;;9.73;;
47796;SDS011;33558;50.922;14.068;2022-09-29T18:54:37;15.30;;;9.97;;
47796;SDS011;33558;50.922;14.068;2022-09-29T18:57:04;15.23;;;10.03;;
47796;SDS011;33558;50.922;14.068;2022-09-29T18:59:31;14.30;;;10.00;;
47796;SDS011;33558;50.922;14.068;2022-09-29T19:01:59;15.33;;;9.40;;
47796;SDS011;33558;50.922;14.068;2022-09-29T19:04:26;17.30;;;10.47;;
47796;SDS011;33558;50.922;14.068;2022-09-29T19:06:55;16.00;;;11.97;;
47796;SDS011;33558;50.922;14.068;2022-09-29T19:09:22;14.47;;;10.57;;
47796;SDS011;33558;50.922;14.068;2022-09-29T19:11:49;15.37;;;9.97;;
47796;SDS011;33558;50.922;14.068;2022-09-29T19:14:15;14.33;;;11.00;;
47796;SDS011;33558;50.922;14.068;2022-09-29T19:16:42;17.57;;;10.87;;
47796;SDS011;33558;50.922;14.068;2022-09-29T19:19:09;14.60;;;10.70;;
47796;SDS011;33558;50.922;14.068;2022-09-29T19:21:36;14.80;;;10.30;;
47796;SDS011;33558;50.922;14.068;2022-09-29T19:24:04;13.47;;;10.07;;
47796;SDS011;33558;50.922;14.068;2022-09-29T19:26:31;16.37;;;11.43;;
47796;SDS011;33558;50.922;14.068;2022-09-29T19:28:57;22.57;;;15.63;;
47796;SDS011;33558;50.922;14.068;2022-09-29T19:31:24;21.03;;;14.17;;
47796;SDS011;33558;50.922;14.068;2022-09-29T19:33:51;17.40;;;11.60;;
47796;SDS011;33558;50.922;14.068;2022-09-29T19:36:19;14.40;;;10.50;;
47796;SDS011;33558;50.922;14.068;2022-09-29T19:38:47;14.10;;;9.77;;
47796;SDS011;33558;50.922;14.068;2022-09-29T19:41:16;14.13;;;9.60;;
47796;SDS011;33558;50.922;14.068;2022-09-29T19:43:44;18.33;;;11.00;;